createdAt,value
2016-12-16T07:58:31.535Z,78.15
2016-12-16T07:59:51.237Z,78.47
2016-12-16T11:44:20.925Z,75.32
2016-12-16T11:45:49.711Z,75.51
2016-12-16T11:46:49.726Z,75.13
2016-12-16T11:47:49.740Z,75.32
2016-12-16T11:48:49.752Z,75.42
2016-12-16T11:49:49.763Z,75.32
2016-12-16T11:50:49.777Z,75.13
2016-12-16T11:51:49.792Z,75.23
2016-12-16T11:52:49.804Z,75.26
2016-12-16T11:53:49.818Z,75.07
2016-12-16T11:54:49.830Z,75.26
2016-12-16T11:55:49.848Z,75.13
2016-12-16T11:56:49.858Z,75.42
2016-12-16T11:57:49.872Z,75.45
2016-12-16T11:58:49.882Z,75.26
2016-12-16T11:59:49.896Z,74.98
2016-12-16T12:00:49.909Z,74.69
2016-12-16T12:01:49.924Z,74.98
2016-12-16T12:02:49.936Z,74.41
2016-12-16T12:03:49.951Z,74.41
2016-12-16T12:04:49.965Z,74.41
2016-12-16T12:05:49.978Z,74.79
2016-12-16T12:06:49.989Z,74.69
2016-12-16T14:29:09.624Z,75.93
2016-12-16T14:30:09.635Z,76.31
2016-12-16T14:31:09.650Z,75.74
2016-12-16T14:32:09.665Z,75.07
2016-12-16T14:33:09.677Z,76.31
2016-12-16T14:34:09.693Z,75.84
2016-12-16T14:35:09.704Z,75.74
2016-12-16T14:36:09.835Z,75.93
2016-12-16T14:37:09.845Z,75.84
2016-12-16T15:19:04.955Z,76.75
2016-12-16T15:19:50.079Z,76.56
2016-12-16T15:20:50.091Z,76.65
2016-12-16T15:21:50.103Z,76.75
2016-12-16T15:22:50.118Z,76.56
2016-12-16T15:23:50.130Z,76.65
2016-12-16T15:24:50.145Z,76.65
2016-12-16T15:25:50.157Z,76.65
2016-12-16T15:26:50.169Z,76.65
2016-12-16T15:27:50.185Z,76.75
2016-12-16T15:28:50.195Z,76.75
2016-12-16T15:29:50.219Z,76.93
2016-12-16T15:30:50.223Z,76.56
2016-12-16T15:31:50.253Z,77.03
2016-12-16T15:32:50.254Z,77.22
2016-12-16T15:33:50.277Z,77.22
2016-12-16T15:34:50.277Z,77.03
2016-12-16T15:35:50.291Z,77.12
2016-12-16T15:36:50.305Z,77.03
